createdAt,value
2019-03-02T00:01:42.468Z,91322.14
2019-03-02T00:04:31.780Z,91318.42
2019-03-02T00:07:21.376Z,91314.23
2019-03-02T00:10:11.036Z,91307.74
2019-03-02T00:13:00.258Z,91308.45
2019-03-02T00:15:49.556Z,91304.52
2019-03-02T00:18:39.369Z,91304.84
2019-03-02T00:21:31.403Z,91304.39
2019-03-02T00:24:19.334Z,91309.92
2019-03-02T00:27:08.628Z,91313.80
2019-03-02T00:29:57.941Z,91308.08
2019-03-02T00:32:47.460Z,91305.72
2019-03-02T00:35:39.857Z,91308.83
2019-03-02T00:38:27.664Z,91306.95
2019-03-02T00:41:17.049Z,91308.41
2019-03-02T00:44:05.574Z,91300.57
2019-03-02T00:46:56.309Z,91295.31
2019-03-02T00:49:45.656Z,91294.89
2019-03-02T00:52:35.460Z,91296.94
2019-03-02T00:55:24.732Z,91290.20
2019-03-02T00:58:14.514Z,91291.39
2019-03-02T01:01:03.782Z,91284.73
2019-03-02T01:03:53.124Z,91284.13
2019-03-02T01:06:44.987Z,91281.68
2019-03-02T01:09:33.114Z,91278.30
2019-03-02T01:12:22.265Z,91272.80
2019-03-02T01:15:13.448Z,91279.08
2019-03-02T01:18:03.673Z,91273.89
2019-03-02T01:20:53.772Z,91276.53
2019-03-02T01:23:43.260Z,91268.91
2019-03-02T01:26:32.722Z,91269.77
2019-03-02T01:29:21.952Z,91264.45
2019-03-02T01:32:16.195Z,91271.16
2019-03-02T01:35:03.682Z,91270.31
2019-03-02T01:37:53.100Z,91269.20
2019-03-02T01:40:42.751Z,91270.03
2019-03-02T01:43:32.182Z,91275.59
2019-03-02T01:46:21.464Z,91276.28
2019-03-02T01:49:10.774Z,91280.62
2019-03-02T01:52:00.309Z,91278.19
2019-03-02T01:54:52.551Z,91276.40
2019-03-02T01:57:40.167Z,91273.54
2019-03-02T02:00:30.948Z,91274.28
2019-03-02T02:03:20.664Z,91267.84
2019-03-02T02:06:10.215Z,91272.34
2019-03-02T02:09:01.780Z,91270.70
2019-03-02T02:11:53.332Z,91270.48
2019-03-02T02:14:40.783Z,91274.58
2019-03-02T02:17:29.826Z,91266.67
2019-03-02T02:20:20.206Z,91273.58
2019-03-02T02:23:13.194Z,91269.41
2019-03-02T02:26:00.516Z,91270.30
2019-03-02T02:28:49.673Z,91270.48
2019-03-02T02:31:44.212Z,91271.03
2019-03-02T02:34:28.738Z,91265.44
2019-03-02T02:37:18.006Z,91262.17
2019-03-02T02:40:12.588Z,91263.38
2019-03-02T02:42:59.303Z,91262.91
2019-03-02T02:45:48.981Z,91263.45
2019-03-02T02:48:39.659Z,91262.12
2019-03-02T02:51:29.329Z,91263.75
2019-03-02T02:54:22.824Z,91258.48
2019-03-02T02:57:08.959Z,91259.09
2019-03-02T02:59:58.226Z,91257.72
2019-03-02T03:02:47.556Z,91260.86
2019-03-02T03:05:36.857Z,91264.11
2019-03-02T03:08:46.081Z,91265.98
2019-03-02T03:11:34.895Z,91265.28
2019-03-02T03:14:24.113Z,91260.36
2019-03-02T03:17:13.633Z,91263.48
2019-03-02T03:20:05.741Z,91270.38
2019-03-02T03:22:53.818Z,91269.39
2019-03-02T03:25:43.074Z,91271.44
2019-03-02T03:28:32.668Z,91277.67
2019-03-02T03:31:25.051Z,91278.25
2019-03-02T03:34:13.533Z,91274.76
2019-03-02T03:37:02.889Z,91279.39
2019-03-02T03:39:52.104Z,91287.73
2019-03-02T03:42:41.399Z,91295.55
2019-03-02T03:45:30.585Z,91290.48
2019-03-02T03:48:19.678Z,91289.44
2019-03-02T03:51:09.434Z,91300.34
2019-03-02T03:54:01.760Z,91295.44
2019-03-02T03:56:48.910Z,91297.16
2019-03-02T03:59:38.452Z,91301.64
2019-03-02T04:02:31.305Z,91303.25
2019-03-02T04:05:18.909Z,91304.86
2019-03-02T04:08:08.225Z,91301.66
2019-03-02T04:11:00.264Z,91303.34
2019-03-02T04:13:48.371Z,91302.05
2019-03-02T04:16:37.767Z,91299.86
2019-03-02T04:19:34.060Z,91299.48
2019-03-02T04:22:22.099Z,91297.88
2019-03-02T04:25:12.985Z,91303.12
2019-03-02T04:28:02.478Z,91303.17
2019-03-02T04:30:51.554Z,91306.33
2019-03-02T04:33:43.192Z,91304.54
2019-03-02T04:36:31.463Z,91304.05
2019-03-02T04:39:21.099Z,91302.59
2019-03-02T04:42:11.717Z,91300.38
2019-03-02T04:45:01.736Z,91304.34
2019-03-02T04:47:51.342Z,91304.91
2019-03-02T04:50:40.925Z,91307.45
2019-03-02T04:53:29.912Z,91316.40
2019-03-02T04:56:20.631Z,91308.59
2019-03-02T04:59:10.490Z,91322.11
2019-03-02T05:02:00.118Z,91321.13
2019-03-02T05:04:49.855Z,91322.68
2019-03-02T05:07:39.122Z,91317.68
2019-03-02T05:10:28.622Z,91318.63
2019-03-02T05:13:24.778Z,91319.17
2019-03-02T05:16:13.116Z,91321.39
2019-03-02T05:19:02.310Z,91319.78
2019-03-02T05:21:52.187Z,91306.86
2019-03-02T05:24:46.625Z,91302.64
2019-03-02T05:27:36.498Z,91306.67
2019-03-02T05:30:26.701Z,91311.81
2019-03-02T05:33:15.790Z,91314.75
2019-03-02T05:36:05.740Z,91317.53
2019-03-02T05:38:55.159Z,91322.72
2019-03-02T05:41:44.406Z,91329.79
2019-03-02T05:44:33.485Z,91336.61
2019-03-02T05:47:22.715Z,91338.06
2019-03-02T05:50:12.134Z,91337.17
2019-03-02T05:53:00.961Z,91335.60
2019-03-02T05:55:53.770Z,91340.22
2019-03-02T05:58:41.452Z,91346.67
2019-03-02T06:01:30.929Z,91354.56
2019-03-02T06:04:23.777Z,91361.12
2019-03-02T06:07:12.797Z,91366.55
2019-03-02T06:10:04.800Z,91378.48
2019-03-02T06:12:54.305Z,91392.88
2019-03-02T06:15:46.355Z,91394.39
2019-03-02T06:18:34.299Z,91395.47
2019-03-02T06:21:23.870Z,91401.73
2019-03-02T06:24:13.156Z,91394.36
2019-03-02T06:27:02.656Z,91394.99
2019-03-02T06:29:51.377Z,91392.02
2019-03-02T06:32:40.458Z,91390.88
2019-03-02T06:35:32.854Z,91384.80
2019-03-02T06:38:20.770Z,91388.22
2019-03-02T06:41:10.135Z,91387.94
2019-03-02T06:43:59.714Z,91385.56
2019-03-02T06:46:49.009Z,91397.97
2019-03-02T06:49:42.070Z,91411.02
2019-03-02T06:52:31.684Z,91411.21
2019-03-02T06:55:24.057Z,91424.00
2019-03-02T06:58:11.273Z,91415.19
2019-03-02T07:01:00.605Z,91422.80
2019-03-02T07:03:49.982Z,91419.36
2019-03-02T07:06:39.678Z,91424.84
2019-03-02T07:09:28.960Z,91423.16
2019-03-02T07:12:18.297Z,91419.63
2019-03-02T07:15:09.247Z,91432.10
2019-03-02T07:18:26.953Z,91433.16
2019-03-02T07:21:16.316Z,91428.11
2019-03-02T07:24:06.009Z,91426.70
2019-03-02T07:26:55.534Z,91424.30
2019-03-02T07:29:45.104Z,91424.63
2019-03-02T07:32:33.859Z,91417.16
2019-03-02T07:35:23.906Z,91421.20
2019-03-02T07:38:16.989Z,91417.55
2019-03-02T07:41:04.112Z,91421.90
2019-03-02T07:43:53.117Z,91415.20
2019-03-02T07:46:44.152Z,91417.88
2019-03-02T07:49:33.240Z,91415.91
2019-03-02T07:52:25.714Z,91418.00
2019-03-02T07:55:19.092Z,91424.06
2019-03-02T07:58:06.626Z,91425.33
2019-03-02T08:00:56.958Z,91424.51
2019-03-02T08:03:46.352Z,91424.53
2019-03-02T08:06:37.341Z,91418.88
2019-03-02T08:09:27.641Z,91408.52
2019-03-02T08:12:16.473Z,91408.68
2019-03-02T08:15:06.399Z,91412.69
2019-03-02T08:17:55.717Z,91413.63
2019-03-02T08:20:45.520Z,91410.61
2019-03-02T08:23:34.843Z,91417.33
2019-03-02T08:26:24.240Z,91413.77
2019-03-02T08:29:13.634Z,91424.58
2019-03-02T08:32:02.881Z,91420.48
2019-03-02T08:34:53.702Z,91420.11
2019-03-02T08:37:42.516Z,91410.95
2019-03-02T08:40:32.108Z,91419.11
2019-03-02T08:43:20.946Z,91423.55
2019-03-02T08:46:10.328Z,91427.37
2019-03-02T08:49:02.901Z,91424.14
2019-03-02T08:51:50.423Z,91422.06
2019-03-02T08:54:40.417Z,91412.82
2019-03-02T08:57:29.412Z,91415.33
2019-03-02T09:00:22.415Z,91412.66
2019-03-02T09:03:12.872Z,91404.34
2019-03-02T09:06:11.293Z,91395.13
2019-03-02T09:08:53.246Z,91391.87
2019-03-02T09:11:44.503Z,91398.75
2019-03-02T09:14:33.257Z,91393.98
2019-03-02T09:17:22.059Z,91388.33
2019-03-02T09:20:11.603Z,91382.51
2019-03-02T09:23:01.645Z,91378.89
2019-03-02T09:25:51.134Z,91373.95
2019-03-02T09:28:40.776Z,91376.25
2019-03-02T09:31:29.597Z,91380.17
2019-03-02T09:34:19.026Z,91373.63
2019-03-02T09:37:08.392Z,91379.67
2019-03-02T09:39:57.226Z,91380.87
2019-03-02T09:42:46.560Z,91379.13
2019-03-02T09:45:35.949Z,91382.17
2019-03-02T09:48:25.626Z,91382.10
2019-03-02T09:51:15.015Z,91382.75
2019-03-02T09:54:04.431Z,91385.44
2019-03-02T09:56:53.604Z,91386.33
2019-03-02T09:59:45.405Z,91367.00
2019-03-02T10:02:33.355Z,91373.50
2019-03-02T10:05:26.096Z,91367.23
2019-03-02T10:08:14.555Z,91366.42
2019-03-02T10:11:06.127Z,91364.19
2019-03-02T10:13:54.695Z,91356.36
2019-03-02T10:16:43.451Z,91343.95
2019-03-02T10:19:32.855Z,91346.02
2019-03-02T10:22:23.367Z,91337.76
2019-03-02T10:25:12.603Z,91348.38
2019-03-02T10:28:02.170Z,91339.38
2019-03-02T10:30:51.844Z,91330.80
2019-03-02T10:33:41.530Z,91330.36
2019-03-02T10:36:32.410Z,91329.11
2019-03-02T10:39:21.171Z,91323.43
2019-03-02T10:42:10.457Z,91318.84
2019-03-02T10:44:59.876Z,91324.52
2019-03-02T10:47:49.046Z,91322.80
2019-03-02T10:50:38.437Z,91329.39
2019-03-02T10:53:28.079Z,91324.00
2019-03-02T10:56:16.874Z,91323.85
2019-03-02T10:59:06.554Z,91314.19
2019-03-02T11:01:55.809Z,91314.62
2019-03-02T11:04:52.723Z,91314.31
2019-03-02T11:08:16.913Z,91308.41
2019-03-02T11:11:33.852Z,91305.36
2019-03-02T11:14:50.665Z,91303.78
2019-03-02T11:18:05.938Z,91304.37
2019-03-02T11:21:19.943Z,91302.23
2019-03-02T11:24:27.946Z,91300.38
2019-03-02T11:27:23.191Z,91295.74
2019-03-02T11:30:28.726Z,91302.19
2019-03-02T11:33:30.955Z,91296.59
2019-03-02T11:36:33.668Z,91298.93
2019-03-02T11:39:44.856Z,91297.94
2019-03-02T11:42:51.795Z,91299.30
2019-03-02T11:46:06.443Z,91298.19
2019-03-02T11:49:34.856Z,91298.80
2019-03-02T11:52:41.930Z,91300.95
2019-03-02T11:55:47.513Z,91297.00
2019-03-02T11:58:54.150Z,91290.66
2019-03-02T12:02:15.680Z,91292.56
2019-03-02T12:05:19.814Z,91298.41
2019-03-02T12:08:25.012Z,91300.89
2019-03-02T12:11:19.769Z,91294.36
2019-03-02T12:14:34.744Z,91288.74
2019-03-02T12:17:42.009Z,91289.08
2019-03-02T12:20:47.494Z,91293.88
2019-03-02T12:23:54.674Z,91295.25
2019-03-02T12:27:06.272Z,91292.34
2019-03-02T12:30:12.932Z,91293.95
2019-03-02T12:33:27.645Z,91289.05
2019-03-02T12:36:41.512Z,91286.52
2019-03-02T12:39:46.867Z,91296.58
2019-03-02T12:42:52.422Z,91296.37
2019-03-02T12:45:33.646Z,91296.48
2019-03-02T12:48:36.910Z,91293.78
2019-03-02T12:51:26.541Z,91296.11
2019-03-02T12:54:19.448Z,91305.46
2019-03-02T12:57:00.255Z,91306.16
2019-03-02T12:59:53.027Z,91298.02
2019-03-02T13:02:44.085Z,91298.97
2019-03-02T13:05:38.869Z,91305.30
2019-03-02T13:08:18.367Z,91303.46
2019-03-02T13:11:10.993Z,91311.84
2019-03-02T13:14:04.689Z,91303.44
2019-03-02T13:16:55.949Z,91295.39
2019-03-02T13:19:55.253Z,91302.66
2019-03-02T13:22:43.618Z,91301.16
2019-03-02T13:25:30.134Z,91303.95
2019-03-02T13:28:20.265Z,91305.66
2019-03-02T13:31:22.386Z,91310.66
2019-03-02T13:34:11.550Z,91310.06
2019-03-02T13:37:05.034Z,91305.95
2019-03-02T13:39:52.550Z,91307.03
2019-03-02T13:42:46.916Z,91313.84
2019-03-02T13:45:34.671Z,91320.41
2019-03-02T13:48:36.671Z,91323.77
2019-03-02T13:51:30.004Z,91322.98
2019-03-02T13:54:15.947Z,91312.94
2019-03-02T13:57:05.804Z,91315.12
2019-03-02T14:00:07.769Z,91307.94
2019-03-02T14:02:50.574Z,91314.70
2019-03-02T14:05:41.755Z,91315.37
2019-03-02T14:08:29.813Z,91310.73
2019-03-02T14:11:36.459Z,91314.59
2019-03-02T14:14:20.663Z,91313.01
2019-03-02T14:17:11.637Z,91317.38
2019-03-02T14:20:20.641Z,91318.19
2019-03-02T14:23:07.105Z,91318.50
2019-03-02T14:25:56.099Z,91312.72
2019-03-02T14:28:53.269Z,91324.48
2019-03-02T14:31:45.878Z,91323.58
2019-03-02T14:34:34.495Z,91323.77
2019-03-02T14:37:27.398Z,91324.72
2019-03-02T14:40:34.205Z,91327.33
2019-03-02T14:43:35.939Z,91333.77
2019-03-02T14:46:25.805Z,91335.67
2019-03-02T14:49:20.333Z,91335.70
2019-03-02T14:52:28.986Z,91335.97
2019-03-02T14:55:23.246Z,91329.52
2019-03-02T14:58:16.108Z,91332.09
2019-03-02T15:01:02.803Z,91338.02
2019-03-02T15:03:52.548Z,91338.11
2019-03-02T15:06:32.327Z,91334.03
2019-03-02T15:09:12.403Z,91337.10
2019-03-02T15:12:04.937Z,91344.11
2019-03-02T15:15:03.848Z,91343.66
2019-03-02T15:17:53.618Z,91342.46
2019-03-02T15:20:43.462Z,91346.84
2019-03-02T15:23:35.238Z,91346.77
2019-03-02T15:26:23.957Z,91344.14
2019-03-02T15:29:13.705Z,91355.88
2019-03-02T15:31:50.294Z,91355.49
2019-03-02T15:34:35.594Z,91369.12
2019-03-02T15:37:17.231Z,91371.23
2019-03-02T15:40:12.996Z,91370.10
2019-03-02T15:43:01.274Z,91376.53
2019-03-02T15:46:03.031Z,91382.42
2019-03-02T15:48:51.362Z,91384.33
2019-03-02T15:51:41.066Z,91380.05
2019-03-02T15:54:23.813Z,91387.84
2019-03-02T15:57:02.776Z,91387.25
2019-03-02T15:59:53.697Z,91387.50
2019-03-02T16:02:49.703Z,91393.18
2019-03-02T16:05:28.734Z,91402.89
2019-03-02T16:08:23.627Z,91405.74
2019-03-02T16:11:24.137Z,91401.85
2019-03-02T16:14:11.947Z,91410.47
2019-03-02T16:17:03.601Z,91417.05
2019-03-02T16:19:49.549Z,91415.30
2019-03-02T16:22:44.734Z,91412.55
2019-03-02T16:25:25.825Z,91425.42
2019-03-02T16:28:11.460Z,91426.22
2019-03-02T16:30:49.711Z,91434.56
2019-03-02T16:33:33.689Z,91441.86
2019-03-02T16:36:26.685Z,91444.08
2019-03-02T16:39:19.806Z,91454.81
2019-03-02T16:42:14.085Z,91455.67
2019-03-02T16:44:57.576Z,91458.21
2019-03-02T16:47:37.193Z,91461.95
2019-03-02T16:50:24.739Z,91468.30
2019-03-02T16:53:19.643Z,91469.42
2019-03-02T16:56:06.390Z,91480.75
2019-03-02T16:59:08.527Z,91486.55
2019-03-02T17:02:10.444Z,91494.37
2019-03-02T17:04:58.944Z,91498.03
2019-03-02T17:07:45.613Z,91504.23
2019-03-02T17:10:38.644Z,91506.28
2019-03-02T17:13:32.088Z,91513.24
2019-03-02T17:16:20.385Z,91518.05
2019-03-02T17:19:29.641Z,91528.84
2019-03-02T17:22:09.585Z,91532.42
2019-03-02T17:24:48.306Z,91539.28
2019-03-02T17:27:50.217Z,91541.88
2019-03-02T17:30:38.643Z,91545.30
2019-03-02T17:33:32.380Z,91548.98
2019-03-02T17:36:21.221Z,91554.25
2019-03-02T17:39:29.345Z,91551.75
2019-03-02T17:42:31.782Z,91557.50
2019-03-02T17:45:31.982Z,91571.69
2019-03-02T17:48:24.605Z,91574.64
2019-03-02T17:51:20.218Z,91575.20
2019-03-02T17:54:10.015Z,91575.12
2019-03-02T17:56:59.822Z,91589.64
2019-03-02T17:59:50.565Z,91588.70
2019-03-02T18:02:45.899Z,91591.30
2019-03-02T18:05:35.687Z,91592.63
2019-03-02T18:08:23.185Z,91598.14
2019-03-02T18:11:15.812Z,91601.76
2019-03-02T18:14:11.392Z,91609.54
2019-03-02T18:17:03.466Z,91611.51
2019-03-02T18:19:35.314Z,91617.78
2019-03-02T18:22:10.264Z,91613.38
2019-03-02T18:24:38.829Z,91618.56
2019-03-02T18:27:28.747Z,91628.77
2019-03-02T18:30:02.205Z,91632.31
2019-03-02T18:32:34.158Z,91634.04
2019-03-02T18:35:05.175Z,91645.81
2019-03-02T18:37:36.066Z,91640.94
2019-03-02T18:40:08.710Z,91650.34
2019-03-02T18:42:39.645Z,91650.41
2019-03-02T18:45:11.407Z,91650.48
2019-03-02T18:47:42.540Z,91651.05
2019-03-02T18:50:33.145Z,91658.34
2019-03-02T18:53:03.019Z,91660.55
2019-03-02T18:55:34.550Z,91661.41
2019-03-02T18:58:08.374Z,91655.60
2019-03-02T19:00:46.110Z,91657.89
2019-03-02T19:03:20.959Z,91665.56
2019-03-02T19:05:53.159Z,91664.14
2019-03-02T19:08:25.442Z,91665.31
2019-03-02T19:10:57.297Z,91672.89
2019-03-02T19:13:28.208Z,91678.03
2019-03-02T19:15:59.063Z,91681.91
2019-03-02T19:18:30.006Z,91685.19
2019-03-02T19:21:00.970Z,91685.36
2019-03-02T19:23:31.856Z,91686.23
2019-03-02T19:26:03.283Z,91685.30
2019-03-02T19:28:34.208Z,91690.31
2019-03-02T19:31:05.095Z,91694.94
2019-03-02T19:33:36.015Z,91697.80
2019-03-02T19:36:06.910Z,91701.50
2019-03-02T19:38:37.796Z,91709.26
2019-03-02T19:41:08.763Z,91717.53
2019-03-02T19:43:39.714Z,91721.47
2019-03-02T19:46:10.683Z,91718.32
2019-03-02T19:48:44.580Z,91719.34
2019-03-02T19:51:15.441Z,91722.82
2019-03-02T19:53:46.515Z,91722.82
2019-03-02T19:56:17.562Z,91719.25
2019-03-02T19:58:48.439Z,91719.09
2019-03-02T20:01:19.512Z,91725.31
2019-03-02T20:03:50.888Z,91723.08
2019-03-02T20:06:21.945Z,91723.25
2019-03-02T20:08:54.374Z,91726.02
2019-03-02T20:11:25.734Z,91734.13
2019-03-02T20:13:56.775Z,91740.70
2019-03-02T20:16:27.685Z,91742.72
2019-03-02T20:19:01.383Z,91748.97
2019-03-02T20:21:33.267Z,91742.36
2019-03-02T20:24:06.353Z,91744.97
2019-03-02T20:26:39.063Z,91746.27
2019-03-02T20:29:10.150Z,91746.80
2019-03-02T20:31:44.002Z,91752.39
2019-03-02T20:34:14.980Z,91757.27
2019-03-02T20:36:45.983Z,91764.91
2019-03-02T20:39:17.183Z,91767.23
2019-03-02T20:41:49.152Z,91767.41
2019-03-02T20:44:20.326Z,91772.75
2019-03-02T20:46:51.223Z,91766.52
2019-03-02T20:49:22.135Z,91781.27
2019-03-02T20:51:53.384Z,91781.98
2019-03-02T20:54:24.637Z,91780.30
2019-03-02T20:56:55.729Z,91785.09
2019-03-02T20:59:44.961Z,91786.72
2019-03-02T21:02:34.239Z,91785.56
2019-03-02T21:05:23.614Z,91788.20
2019-03-02T21:08:12.925Z,91793.00
2019-03-02T21:11:02.169Z,91791.31
2019-03-02T21:13:51.553Z,91793.71
2019-03-02T21:16:41.149Z,91804.38
2019-03-02T21:19:31.083Z,91798.42
2019-03-02T21:22:23.196Z,91798.42
2019-03-02T21:25:12.899Z,91802.24
2019-03-02T21:28:02.326Z,91799.58
2019-03-02T21:30:51.629Z,91800.66
2019-03-02T21:33:41.140Z,91808.73
2019-03-02T21:36:30.835Z,91801.00
2019-03-02T21:39:21.341Z,91809.01
2019-03-02T21:42:10.545Z,91802.87
2019-03-02T21:44:59.858Z,91807.66
2019-03-02T21:47:49.938Z,91807.47
2019-03-02T21:50:38.766Z,91798.86
2019-03-02T21:53:28.015Z,91800.98
2019-03-02T21:56:17.179Z,91806.16
2019-03-02T21:59:06.831Z,91811.75
2019-03-02T22:01:56.298Z,91810.77
2019-03-02T22:04:48.096Z,91804.56
2019-03-02T22:07:40.462Z,91809.78
2019-03-02T22:10:38.942Z,91818.76
2019-03-02T22:13:28.495Z,91813.77
2019-03-02T22:16:17.898Z,91809.14
2019-03-02T22:19:07.354Z,91812.05
2019-03-02T22:21:56.185Z,91810.43
2019-03-02T22:24:45.429Z,91817.44
2019-03-02T22:27:34.853Z,91818.52
2019-03-02T22:30:23.962Z,91819.95
2019-03-02T22:33:12.622Z,91822.37
2019-03-02T22:36:01.940Z,91815.63
2019-03-02T22:38:50.982Z,91813.63
2019-03-02T22:41:40.029Z,91818.15
2019-03-02T22:44:29.125Z,91817.63
2019-03-02T22:47:18.703Z,91819.81
2019-03-02T22:50:11.729Z,91826.12
2019-03-02T22:53:01.272Z,91825.46
2019-03-02T22:55:51.150Z,91830.87
2019-03-02T22:58:39.752Z,91829.87
2019-03-02T23:02:00.249Z,91827.12
2019-03-02T23:04:49.831Z,91821.99
2019-03-02T23:07:39.426Z,91826.08
2019-03-02T23:10:29.035Z,91828.31
2019-03-02T23:13:18.661Z,91832.80
2019-03-02T23:16:07.534Z,91831.70
2019-03-02T23:18:56.833Z,91839.66
2019-03-02T23:21:45.872Z,91838.25
2019-03-02T23:24:36.193Z,91846.81
2019-03-02T23:27:25.764Z,91845.36
2019-03-02T23:30:15.773Z,91846.54
2019-03-02T23:33:05.261Z,91851.84
2019-03-02T23:35:54.509Z,91856.73
2019-03-02T23:38:43.524Z,91858.16
2019-03-02T23:41:33.120Z,91867.97
2019-03-02T23:44:22.380Z,91867.16
2019-03-02T23:47:11.827Z,91867.08
2019-03-02T23:50:00.781Z,91865.46
2019-03-02T23:52:50.023Z,91869.34
2019-03-02T23:55:39.429Z,91872.00
2019-03-02T23:58:28.801Z,91864.53
